sensor_id;sensor_type;location;lat;lon;timestamp;P1;durP1;ratioP1;P2;durP2;ratioP2
68976;SDS011;56029;52.568;13.588;2023-07-22T00:00:29;15.47;;;10.10;;
68976;SDS011;56029;52.568;13.588;2023-07-22T00:03:15;15.60;;;10.48;;
68976;SDS011;56029;52.568;13.588;2023-07-22T00:05:41;15.60;;;10.23;;
68976;SDS011;56029;52.568;13.588;2023-07-22T00:08:06;16.00;;;9.90;;
68976;SDS011;56029;52.568;13.588;2023-07-22T00:10:32;15.88;;;9.77;;
68976;SDS011;56029;52.568;13.588;2023-07-22T00:12:57;15.53;;;9.50;;
68976;SDS011;56029;52.568;13.588;2023-07-22T00:15:23;18.53;;;10.17;;
68976;SDS011;56029;52.568;13.588;2023-07-22T00:17:50;14.95;;;10.05;;
68976;SDS011;56029;52.568;13.588;2023-07-22T00:20:16;14.32;;;9.65;;
68976;SDS011;56029;52.568;13.588;2023-07-22T00:22:41;15.55;;;9.55;;
68976;SDS011;56029;52.568;13.588;2023-07-22T00:25:09;14.83;;;9.50;;
68976;SDS011;56029;52.568;13.588;2023-07-22T00:27:39;14.93;;;9.77;;
68976;SDS011;56029;52.568;13.588;2023-07-22T00:30:08;15.15;;;9.48;;
68976;SDS011;56029;52.568;13.588;2023-07-22T00:32:34;14.43;;;9.88;;
68976;SDS011;56029;52.568;13.588;2023-07-22T00:35:04;14.27;;;9.45;;
68976;SDS011;56029;52.568;13.588;2023-07-22T00:37:30;15.00;;;9.90;;
68976;SDS011;56029;52.568;13.588;2023-07-22T00:39:56;15.30;;;9.60;;
68976;SDS011;56029;52.568;13.588;2023-07-22T00:42:22;14.87;;;9.43;;
68976;SDS011;56029;52.568;13.588;2023-07-22T00:44:47;17.23;;;10.30;;
68976;SDS011;56029;52.568;13.588;2023-07-22T00:47:13;16.17;;;10.43;;
68976;SDS011;56029;52.568;13.588;2023-07-22T00:49:39;17.30;;;10.88;;
68976;SDS011;56029;52.568;13.588;2023-07-22T00:52:05;17.00;;;11.10;;
68976;SDS011;56029;52.568;13.588;2023-07-22T00:54:30;17.00;;;10.75;;
68976;SDS011;56029;52.568;13.588;2023-07-22T00:56:57;16.57;;;10.97;;
68976;SDS011;56029;52.568;13.588;2023-07-22T00:59:23;17.65;;;11.13;;
68976;SDS011;56029;52.568;13.588;2023-07-22T01:01:49;16.88;;;11.13;;
68976;SDS011;56029;52.568;13.588;2023-07-22T01:04:15;18.93;;;11.90;;
68976;SDS011;56029;52.568;13.588;2023-07-22T01:06:44;18.80;;;11.80;;
68976;SDS011;56029;52.568;13.588;2023-07-22T01:09:10;19.42;;;11.77;;
68976;SDS011;56029;52.568;13.588;2023-07-22T01:11:35;17.63;;;11.57;;
68976;SDS011;56029;52.568;13.588;2023-07-22T01:14:01;17.88;;;11.55;;
68976;SDS011;56029;52.568;13.588;2023-07-22T01:16:29;18.42;;;11.60;;
68976;SDS011;56029;52.568;13.588;2023-07-22T01:18:55;18.63;;;11.55;;
68976;SDS011;56029;52.568;13.588;2023-07-22T01:21:25;17.60;;;11.30;;
68976;SDS011;56029;52.568;13.588;2023-07-22T01:23:51;17.63;;;11.65;;
68976;SDS011;56029;52.568;13.588;2023-07-22T01:26:17;18.23;;;12.30;;
68976;SDS011;56029;52.568;13.588;2023-07-22T01:28:43;17.48;;;11.85;;
68976;SDS011;56029;52.568;13.588;2023-07-22T01:31:09;19.00;;;12.63;;
68976;SDS011;56029;52.568;13.588;2023-07-22T01:33:35;17.45;;;11.98;;
68976;SDS011;56029;52.568;13.588;2023-07-22T01:36:00;17.90;;;11.93;;
68976;SDS011;56029;52.568;13.588;2023-07-22T01:38:27;18.90;;;11.98;;
68976;SDS011;56029;52.568;13.588;2023-07-22T01:40:54;16.63;;;11.05;;
68976;SDS011;56029;52.568;13.588;2023-07-22T01:43:20;18.40;;;11.83;;
68976;SDS011;56029;52.568;13.588;2023-07-22T01:45:46;18.02;;;11.77;;
68976;SDS011;56029;52.568;13.588;2023-07-22T01:48:12;16.05;;;10.57;;
68976;SDS011;56029;52.568;13.588;2023-07-22T01:50:37;15.57;;;9.43;;
68976;SDS011;56029;52.568;13.588;2023-07-22T01:53:03;16.95;;;11.25;;
68976;SDS011;56029;52.568;13.588;2023-07-22T01:55:30;14.47;;;10.43;;
68976;SDS011;56029;52.568;13.588;2023-07-22T01:57:57;15.65;;;11.38;;
68976;SDS011;56029;52.568;13.588;2023-07-22T02:00:23;16.17;;;10.75;;
68976;SDS011;56029;52.568;13.588;2023-07-22T02:02:49;15.97;;;11.10;;
68976;SDS011;56029;52.568;13.588;2023-07-22T02:05:14;16.10;;;8.97;;
68976;SDS011;56029;52.568;13.588;2023-07-22T02:07:40;17.05;;;10.32;;
68976;SDS011;56029;52.568;13.588;2023-07-22T02:10:06;15.33;;;10.70;;
68976;SDS011;56029;52.568;13.588;2023-07-22T02:12:32;15.77;;;10.50;;
68976;SDS011;56029;52.568;13.588;2023-07-22T02:14:57;14.77;;;10.07;;
68976;SDS011;56029;52.568;13.588;2023-07-22T02:17:23;14.60;;;9.70;;
68976;SDS011;56029;52.568;13.588;2023-07-22T02:19:48;15.57;;;10.55;;
68976;SDS011;56029;52.568;13.588;2023-07-22T02:22:14;15.77;;;10.57;;
68976;SDS011;56029;52.568;13.588;2023-07-22T02:24:40;16.55;;;10.48;;
68976;SDS011;56029;52.568;13.588;2023-07-22T02:27:06;16.03;;;10.40;;
68976;SDS011;56029;52.568;13.588;2023-07-22T02:29:32;17.25;;;11.13;;
68976;SDS011;56029;52.568;13.588;2023-07-22T02:31:58;15.80;;;10.87;;
68976;SDS011;56029;52.568;13.588;2023-07-22T02:34:23;17.30;;;11.65;;
68976;SDS011;56029;52.568;13.588;2023-07-22T02:36:49;13.90;;;8.60;;
68976;SDS011;56029;52.568;13.588;2023-07-22T02:39:14;16.13;;;10.90;;
68976;SDS011;56029;52.568;13.588;2023-07-22T02:41:40;16.77;;;11.40;;
68976;SDS011;56029;52.568;13.588;2023-07-22T02:44:06;19.33;;;11.53;;
68976;SDS011;56029;52.568;13.588;2023-07-22T02:46:32;15.57;;;10.43;;
68976;SDS011;56029;52.568;13.588;2023-07-22T02:48:57;15.10;;;10.07;;
68976;SDS011;56029;52.568;13.588;2023-07-22T02:51:24;15.20;;;10.18;;
68976;SDS011;56029;52.568;13.588;2023-07-22T02:53:50;15.33;;;10.20;;
68976;SDS011;56029;52.568;13.588;2023-07-22T02:56:15;14.18;;;9.77;;
68976;SDS011;56029;52.568;13.588;2023-07-22T02:58:41;16.73;;;10.00;;
68976;SDS011;56029;52.568;13.588;2023-07-22T03:01:09;15.10;;;10.18;;
68976;SDS011;56029;52.568;13.588;2023-07-22T03:03:35;14.93;;;10.00;;
68976;SDS011;56029;52.568;13.588;2023-07-22T03:06:02;15.30;;;10.05;;
68976;SDS011;56029;52.568;13.588;2023-07-22T03:08:28;15.13;;;9.43;;
68976;SDS011;56029;52.568;13.588;2023-07-22T03:10:55;14.13;;;9.97;;
68976;SDS011;56029;52.568;13.588;2023-07-22T03:13:20;16.13;;;10.13;;
68976;SDS011;56029;52.568;13.588;2023-07-22T03:15:46;15.10;;;9.40;;
68976;SDS011;56029;52.568;13.588;2023-07-22T03:18:11;14.43;;;9.63;;
68976;SDS011;56029;52.568;13.588;2023-07-22T03:20:37;13.90;;;9.18;;
68976;SDS011;56029;52.568;13.588;2023-07-22T03:23:07;11.70;;;7.03;;
68976;SDS011;56029;52.568;13.588;2023-07-22T03:25:33;16.20;;;8.73;;
68976;SDS011;56029;52.568;13.588;2023-07-22T03:28:03;15.03;;;9.07;;
68976;SDS011;56029;52.568;13.588;2023-07-22T03:30:31;14.30;;;8.35;;
68976;SDS011;56029;52.568;13.588;2023-07-22T03:32:56;12.00;;;7.57;;
68976;SDS011;56029;52.568;13.588;2023-07-22T03:35:22;12.10;;;7.97;;
68976;SDS011;56029;52.568;13.588;2023-07-22T03:37:48;12.82;;;8.20;;
68976;SDS011;56029;52.568;13.588;2023-07-22T03:40:13;11.97;;;8.23;;
68976;SDS011;56029;52.568;13.588;2023-07-22T03:42:49;13.95;;;7.85;;
68976;SDS011;56029;52.568;13.588;2023-07-22T03:45:16;13.20;;;7.90;;
68976;SDS011;56029;52.568;13.588;2023-07-22T03:47:44;13.48;;;7.85;;
68976;SDS011;56029;52.568;13.588;2023-07-22T03:50:11;13.07;;;7.67;;
68976;SDS011;56029;52.568;13.588;2023-07-22T03:52:36;11.70;;;7.55;;
68976;SDS011;56029;52.568;13.588;2023-07-22T03:55:02;11.40;;;7.13;;
68976;SDS011;56029;52.568;13.588;2023-07-22T03:57:29;10.35;;;6.70;;
68976;SDS011;56029;52.568;13.588;2023-07-22T03:59:55;11.27;;;6.53;;
68976;SDS011;56029;52.568;13.588;2023-07-22T04:02:21;10.70;;;6.55;;
68976;SDS011;56029;52.568;13.588;2023-07-22T04:04:47;10.25;;;6.20;;
68976;SDS011;56029;52.568;13.588;2023-07-22T04:07:13;10.13;;;5.80;;
68976;SDS011;56029;52.568;13.588;2023-07-22T04:09:38;11.40;;;6.47;;
68976;SDS011;56029;52.568;13.588;2023-07-22T04:12:04;10.15;;;6.47;;
68976;SDS011;56029;52.568;13.588;2023-07-22T04:14:30;9.68;;;6.57;;
68976;SDS011;56029;52.568;13.588;2023-07-22T04:16:55;9.63;;;6.30;;
68976;SDS011;56029;52.568;13.588;2023-07-22T04:19:21;10.70;;;6.27;;
68976;SDS011;56029;52.568;13.588;2023-07-22T04:21:46;10.60;;;6.67;;
68976;SDS011;56029;52.568;13.588;2023-07-22T04:24:12;11.40;;;6.60;;
68976;SDS011;56029;52.568;13.588;2023-07-22T04:26:37;11.37;;;6.87;;
68976;SDS011;56029;52.568;13.588;2023-07-22T04:29:03;11.38;;;7.00;;
68976;SDS011;56029;52.568;13.588;2023-07-22T04:31:28;13.00;;;8.10;;
68976;SDS011;56029;52.568;13.588;2023-07-22T04:33:54;12.83;;;7.83;;
68976;SDS011;56029;52.568;13.588;2023-07-22T04:36:19;12.40;;;7.90;;
68976;SDS011;56029;52.568;13.588;2023-07-22T04:38:45;10.70;;;7.22;;
68976;SDS011;56029;52.568;13.588;2023-07-22T04:41:10;11.13;;;7.20;;
68976;SDS011;56029;52.568;13.588;2023-07-22T04:43:36;10.90;;;6.60;;
68976;SDS011;56029;52.568;13.588;2023-07-22T04:46:02;9.90;;;6.13;;
68976;SDS011;56029;52.568;13.588;2023-07-22T04:48:27;8.93;;;5.60;;
68976;SDS011;56029;52.568;13.588;2023-07-22T04:50:53;9.38;;;5.88;;
68976;SDS011;56029;52.568;13.588;2023-07-22T04:53:18;10.13;;;5.60;;
68976;SDS011;56029;52.568;13.588;2023-07-22T04:55:44;8.95;;;5.20;;
68976;SDS011;56029;52.568;13.588;2023-07-22T04:58:10;8.53;;;5.00;;
68976;SDS011;56029;52.568;13.588;2023-07-22T05:00:36;7.88;;;5.13;;
68976;SDS011;56029;52.568;13.588;2023-07-22T05:03:02;8.32;;;4.97;;
68976;SDS011;56029;52.568;13.588;2023-07-22T05:05:29;9.57;;;5.80;;
68976;SDS011;56029;52.568;13.588;2023-07-22T05:07:55;8.45;;;5.40;;
68976;SDS011;56029;52.568;13.588;2023-07-22T05:10:20;8.83;;;5.30;;
68976;SDS011;56029;52.568;13.588;2023-07-22T05:12:46;8.60;;;5.70;;
68976;SDS011;56029;52.568;13.588;2023-07-22T05:15:12;10.13;;;5.87;;
68976;SDS011;56029;52.568;13.588;2023-07-22T05:17:38;9.63;;;5.65;;
68976;SDS011;56029;52.568;13.588;2023-07-22T05:20:05;9.20;;;5.97;;
68976;SDS011;56029;52.568;13.588;2023-07-22T05:22:38;11.10;;;6.10;;
68976;SDS011;56029;52.568;13.588;2023-07-22T05:25:05;10.37;;;6.00;;
68976;SDS011;56029;52.568;13.588;2023-07-22T05:27:31;9.57;;;5.78;;
68976;SDS011;56029;52.568;13.588;2023-07-22T05:29:57;10.25;;;6.60;;
68976;SDS011;56029;52.568;13.588;2023-07-22T05:32:23;10.93;;;6.10;;
68976;SDS011;56029;52.568;13.588;2023-07-22T05:34:48;11.23;;;6.50;;
68976;SDS011;56029;52.568;13.588;2023-07-22T05:37:14;10.90;;;6.40;;
68976;SDS011;56029;52.568;13.588;2023-07-22T05:39:39;12.53;;;6.63;;
68976;SDS011;56029;52.568;13.588;2023-07-22T05:42:05;11.35;;;6.43;;
68976;SDS011;56029;52.568;13.588;2023-07-22T05:44:31;13.13;;;7.00;;
68976;SDS011;56029;52.568;13.588;2023-07-22T05:46:56;11.00;;;6.43;;
68976;SDS011;56029;52.568;13.588;2023-07-22T05:49:22;12.53;;;7.03;;
68976;SDS011;56029;52.568;13.588;2023-07-22T05:51:47;12.17;;;7.07;;
68976;SDS011;56029;52.568;13.588;2023-07-22T05:54:13;12.30;;;6.68;;
68976;SDS011;56029;52.568;13.588;2023-07-22T05:56:39;12.45;;;6.88;;
68976;SDS011;56029;52.568;13.588;2023-07-22T05:59:05;12.07;;;7.60;;
68976;SDS011;56029;52.568;13.588;2023-07-22T06:01:30;12.87;;;7.87;;
68976;SDS011;56029;52.568;13.588;2023-07-22T06:03:56;12.88;;;7.93;;
68976;SDS011;56029;52.568;13.588;2023-07-22T06:06:22;11.77;;;8.20;;
68976;SDS011;56029;52.568;13.588;2023-07-22T06:08:47;12.55;;;8.25;;
68976;SDS011;56029;52.568;13.588;2023-07-22T06:11:13;14.57;;;9.00;;
68976;SDS011;56029;52.568;13.588;2023-07-22T06:13:38;14.30;;;8.67;;
68976;SDS011;56029;52.568;13.588;2023-07-22T06:16:04;12.20;;;7.97;;
68976;SDS011;56029;52.568;13.588;2023-07-22T06:18:30;13.03;;;8.50;;
68976;SDS011;56029;52.568;13.588;2023-07-22T06:20:55;11.90;;;7.83;;
68976;SDS011;56029;52.568;13.588;2023-07-22T06:23:21;12.63;;;7.45;;
68976;SDS011;56029;52.568;13.588;2023-07-22T06:25:46;12.33;;;7.50;;
68976;SDS011;56029;52.568;13.588;2023-07-22T06:28:12;11.85;;;6.70;;
68976;SDS011;56029;52.568;13.588;2023-07-22T06:30:37;11.30;;;6.50;;
68976;SDS011;56029;52.568;13.588;2023-07-22T06:33:03;12.77;;;6.87;;
68976;SDS011;56029;52.568;13.588;2023-07-22T06:35:28;12.13;;;6.75;;
68976;SDS011;56029;52.568;13.588;2023-07-22T06:37:54;12.10;;;6.73;;
68976;SDS011;56029;52.568;13.588;2023-07-22T06:40:19;11.50;;;6.43;;
68976;SDS011;56029;52.568;13.588;2023-07-22T06:42:45;10.60;;;6.00;;
68976;SDS011;56029;52.568;13.588;2023-07-22T06:45:10;10.13;;;5.40;;
68976;SDS011;56029;52.568;13.588;2023-07-22T06:47:36;10.70;;;5.90;;
68976;SDS011;56029;52.568;13.588;2023-07-22T06:50:02;10.18;;;5.95;;
68976;SDS011;56029;52.568;13.588;2023-07-22T06:52:30;10.20;;;5.18;;
68976;SDS011;56029;52.568;13.588;2023-07-22T06:54:56;10.33;;;5.20;;
68976;SDS011;56029;52.568;13.588;2023-07-22T06:57:21;9.88;;;5.47;;
68976;SDS011;56029;52.568;13.588;2023-07-22T06:59:47;10.07;;;4.95;;
68976;SDS011;56029;52.568;13.588;2023-07-22T07:02:16;9.82;;;5.57;;
68976;SDS011;56029;52.568;13.588;2023-07-22T07:04:41;11.27;;;5.20;;
68976;SDS011;56029;52.568;13.588;2023-07-22T07:07:07;9.73;;;5.23;;
68976;SDS011;56029;52.568;13.588;2023-07-22T07:09:32;12.95;;;5.65;;
68976;SDS011;56029;52.568;13.588;2023-07-22T07:11:58;10.37;;;4.90;;
68976;SDS011;56029;52.568;13.588;2023-07-22T07:14:23;10.40;;;5.43;;
68976;SDS011;56029;52.568;13.588;2023-07-22T07:16:52;13.55;;;5.07;;
68976;SDS011;56029;52.568;13.588;2023-07-22T07:19:18;10.50;;;4.60;;
68976;SDS011;56029;52.568;13.588;2023-07-22T07:21:43;9.35;;;4.40;;
68976;SDS011;56029;52.568;13.588;2023-07-22T07:24:09;11.00;;;4.17;;
68976;SDS011;56029;52.568;13.588;2023-07-22T07:26:35;8.63;;;4.43;;
68976;SDS011;56029;52.568;13.588;2023-07-22T07:29:00;7.30;;;3.97;;
68976;SDS011;56029;52.568;13.588;2023-07-22T07:31:26;8.93;;;4.13;;
68976;SDS011;56029;52.568;13.588;2023-07-22T07:33:52;8.57;;;4.22;;
68976;SDS011;56029;52.568;13.588;2023-07-22T07:36:18;6.55;;;3.28;;
68976;SDS011;56029;52.568;13.588;2023-07-22T07:38:43;9.00;;;3.50;;
68976;SDS011;56029;52.568;13.588;2023-07-22T07:41:09;9.10;;;3.70;;
68976;SDS011;56029;52.568;13.588;2023-07-22T07:43:39;8.23;;;3.63;;
68976;SDS011;56029;52.568;13.588;2023-07-22T07:46:12;8.45;;;4.07;;
68976;SDS011;56029;52.568;13.588;2023-07-22T07:48:52;7.80;;;3.90;;
68976;SDS011;56029;52.568;13.588;2023-07-22T07:51:20;8.43;;;3.80;;
68976;SDS011;56029;52.568;13.588;2023-07-22T07:53:46;9.27;;;4.22;;
68976;SDS011;56029;52.568;13.588;2023-07-22T07:56:13;9.00;;;3.70;;
68976;SDS011;56029;52.568;13.588;2023-07-22T07:58:39;8.02;;;3.83;;
68976;SDS011;56029;52.568;13.588;2023-07-22T08:01:05;9.65;;;3.60;;
68976;SDS011;56029;52.568;13.588;2023-07-22T08:03:31;7.67;;;3.43;;
68976;SDS011;56029;52.568;13.588;2023-07-22T08:05:58;7.32;;;3.13;;
68976;SDS011;56029;52.568;13.588;2023-07-22T08:08:23;6.43;;;3.07;;
68976;SDS011;56029;52.568;13.588;2023-07-22T08:11:02;7.13;;;3.30;;
68976;SDS011;56029;52.568;13.588;2023-07-22T08:13:32;7.38;;;3.72;;
68976;SDS011;56029;52.568;13.588;2023-07-22T08:16:06;8.77;;;3.50;;
68976;SDS011;56029;52.568;13.588;2023-07-22T08:18:33;7.57;;;3.25;;
68976;SDS011;56029;52.568;13.588;2023-07-22T08:21:00;7.77;;;3.40;;
68976;SDS011;56029;52.568;13.588;2023-07-22T08:23:28;8.05;;;3.45;;
68976;SDS011;56029;52.568;13.588;2023-07-22T08:25:53;7.90;;;3.50;;
68976;SDS011;56029;52.568;13.588;2023-07-22T08:28:19;7.60;;;3.67;;
68976;SDS011;56029;52.568;13.588;2023-07-22T08:30:45;7.75;;;3.60;;
68976;SDS011;56029;52.568;13.588;2023-07-22T08:33:11;7.33;;;3.80;;
68976;SDS011;56029;52.568;13.588;2023-07-22T08:35:37;7.28;;;3.40;;
68976;SDS011;56029;52.568;13.588;2023-07-22T08:38:04;8.52;;;3.92;;
68976;SDS011;56029;52.568;13.588;2023-07-22T08:40:33;8.73;;;3.88;;
68976;SDS011;56029;52.568;13.588;2023-07-22T08:43:02;7.90;;;3.70;;
68976;SDS011;56029;52.568;13.588;2023-07-22T08:45:30;6.38;;;3.17;;
68976;SDS011;56029;52.568;13.588;2023-07-22T08:47:58;7.78;;;3.80;;
68976;SDS011;56029;52.568;13.588;2023-07-22T08:50:29;7.82;;;3.42;;
68976;SDS011;56029;52.568;13.588;2023-07-22T08:52:55;7.30;;;3.50;;
68976;SDS011;56029;52.568;13.588;2023-07-22T08:55:23;9.27;;;3.57;;
68976;SDS011;56029;52.568;13.588;2023-07-22T08:57:49;8.18;;;3.75;;
68976;SDS011;56029;52.568;13.588;2023-07-22T09:00:15;8.10;;;3.67;;
68976;SDS011;56029;52.568;13.588;2023-07-22T09:02:41;7.93;;;3.50;;
68976;SDS011;56029;52.568;13.588;2023-07-22T09:05:08;6.60;;;3.30;;
68976;SDS011;56029;52.568;13.588;2023-07-22T09:07:34;7.23;;;3.40;;
68976;SDS011;56029;52.568;13.588;2023-07-22T09:10:01;7.68;;;3.50;;
68976;SDS011;56029;52.568;13.588;2023-07-22T09:12:27;9.35;;;3.80;;
68976;SDS011;56029;52.568;13.588;2023-07-22T09:14:53;7.07;;;3.50;;
68976;SDS011;56029;52.568;13.588;2023-07-22T09:17:19;6.83;;;2.73;;
68976;SDS011;56029;52.568;13.588;2023-07-22T09:19:44;7.75;;;3.60;;
68976;SDS011;56029;52.568;13.588;2023-07-22T09:22:10;7.93;;;3.47;;
68976;SDS011;56029;52.568;13.588;2023-07-22T09:24:35;8.10;;;3.80;;
68976;SDS011;56029;52.568;13.588;2023-07-22T09:27:01;7.65;;;3.38;;
68976;SDS011;56029;52.568;13.588;2023-07-22T09:29:33;7.47;;;3.57;;
68976;SDS011;56029;52.568;13.588;2023-07-22T09:31:59;7.68;;;3.55;;
68976;SDS011;56029;52.568;13.588;2023-07-22T09:34:25;7.03;;;3.45;;
68976;SDS011;56029;52.568;13.588;2023-07-22T09:39:20;6.60;;;3.30;;
68976;SDS011;56029;52.568;13.588;2023-07-22T09:41:46;6.75;;;3.15;;
68976;SDS011;56029;52.568;13.588;2023-07-22T09:44:12;7.33;;;3.20;;
68976;SDS011;56029;52.568;13.588;2023-07-22T09:46:38;6.05;;;3.33;;
68976;SDS011;56029;52.568;13.588;2023-07-22T09:49:04;6.90;;;3.00;;
68976;SDS011;56029;52.568;13.588;2023-07-22T09:51:34;5.65;;;2.85;;
68976;SDS011;56029;52.568;13.588;2023-07-22T09:54:02;7.68;;;3.35;;
68976;SDS011;56029;52.568;13.588;2023-07-22T09:56:28;7.00;;;3.10;;
68976;SDS011;56029;52.568;13.588;2023-07-22T09:58:55;6.93;;;2.60;;
68976;SDS011;56029;52.568;13.588;2023-07-22T10:01:25;8.80;;;3.10;;
68976;SDS011;56029;52.568;13.588;2023-07-22T10:03:52;9.15;;;3.35;;
68976;SDS011;56029;52.568;13.588;2023-07-22T10:06:26;5.88;;;2.88;;
68976;SDS011;56029;52.568;13.588;2023-07-22T10:08:53;12.07;;;3.08;;
68976;SDS011;56029;52.568;13.588;2023-07-22T10:11:20;4.82;;;2.80;;
68976;SDS011;56029;52.568;13.588;2023-07-22T10:13:48;6.00;;;2.70;;
68976;SDS011;56029;52.568;13.588;2023-07-22T10:16:15;5.03;;;2.42;;
68976;SDS011;56029;52.568;13.588;2023-07-22T10:18:41;5.53;;;2.58;;
68976;SDS011;56029;52.568;13.588;2023-07-22T10:21:08;3.33;;;2.10;;
68976;SDS011;56029;52.568;13.588;2023-07-22T10:23:34;4.85;;;2.25;;
68976;SDS011;56029;52.568;13.588;2023-07-22T10:26:01;4.57;;;2.30;;
68976;SDS011;56029;52.568;13.588;2023-07-22T10:28:28;5.88;;;2.30;;
68976;SDS011;56029;52.568;13.588;2023-07-22T10:30:54;7.63;;;2.45;;
68976;SDS011;56029;52.568;13.588;2023-07-22T10:33:22;4.65;;;2.10;;
68976;SDS011;56029;52.568;13.588;2023-07-22T10:36:05;4.82;;;2.30;;
68976;SDS011;56029;52.568;13.588;2023-07-22T10:38:38;4.80;;;2.40;;
68976;SDS011;56029;52.568;13.588;2023-07-22T10:41:13;5.10;;;2.20;;
68976;SDS011;56029;52.568;13.588;2023-07-22T10:43:42;4.53;;;1.95;;
68976;SDS011;56029;52.568;13.588;2023-07-22T10:46:20;4.13;;;2.33;;
68976;SDS011;56029;52.568;13.588;2023-07-22T10:49:06;6.65;;;2.13;;
68976;SDS011;56029;52.568;13.588;2023-07-22T10:51:39;5.03;;;2.50;;
68976;SDS011;56029;52.568;13.588;2023-07-22T10:54:12;4.90;;;2.13;;
68976;SDS011;56029;52.568;13.588;2023-07-22T10:56:40;4.25;;;2.10;;
68976;SDS011;56029;52.568;13.588;2023-07-22T10:59:06;4.57;;;2.10;;
68976;SDS011;56029;52.568;13.588;2023-07-22T11:01:35;5.40;;;2.30;;
68976;SDS011;56029;52.568;13.588;2023-07-22T11:06:30;5.63;;;2.30;;
68976;SDS011;56029;52.568;13.588;2023-07-22T11:08:56;4.97;;;2.30;;
68976;SDS011;56029;52.568;13.588;2023-07-22T11:11:33;4.43;;;2.37;;
68976;SDS011;56029;52.568;13.588;2023-07-22T11:14:13;4.63;;;2.35;;
68976;SDS011;56029;52.568;13.588;2023-07-22T11:16:48;4.93;;;2.60;;
68976;SDS011;56029;52.568;13.588;2023-07-22T11:19:14;4.97;;;2.08;;
68976;SDS011;56029;52.568;13.588;2023-07-22T11:21:44;6.03;;;2.20;;
68976;SDS011;56029;52.568;13.588;2023-07-22T11:24:11;4.85;;;2.53;;
68976;SDS011;56029;52.568;13.588;2023-07-22T11:26:37;4.60;;;2.30;;
68976;SDS011;56029;52.568;13.588;2023-07-22T11:29:04;4.70;;;2.30;;
68976;SDS011;56029;52.568;13.588;2023-07-22T11:31:37;4.97;;;2.40;;
68976;SDS011;56029;52.568;13.588;2023-07-22T11:34:17;5.28;;;2.30;;
68976;SDS011;56029;52.568;13.588;2023-07-22T11:36:45;4.57;;;2.33;;
68976;SDS011;56029;52.568;13.588;2023-07-22T11:39:12;5.38;;;2.45;;
68976;SDS011;56029;52.568;13.588;2023-07-22T11:41:42;6.78;;;2.35;;
68976;SDS011;56029;52.568;13.588;2023-07-22T11:44:09;5.70;;;2.57;;
68976;SDS011;56029;52.568;13.588;2023-07-22T11:46:48;7.07;;;2.45;;
68976;SDS011;56029;52.568;13.588;2023-07-22T11:49:23;4.78;;;2.20;;
68976;SDS011;56029;52.568;13.588;2023-07-22T11:51:56;4.53;;;2.25;;
68976;SDS011;56029;52.568;13.588;2023-07-22T11:54:33;6.53;;;2.40;;
68976;SDS011;56029;52.568;13.588;2023-07-22T11:59:37;6.97;;;2.70;;
68976;SDS011;56029;52.568;13.588;2023-07-22T12:02:04;5.60;;;2.83;;
68976;SDS011;56029;52.568;13.588;2023-07-22T12:04:33;6.30;;;2.95;;
68976;SDS011;56029;52.568;13.588;2023-07-22T12:06:59;5.93;;;3.05;;
68976;SDS011;56029;52.568;13.588;2023-07-22T12:09:26;6.63;;;3.07;;
68976;SDS011;56029;52.568;13.588;2023-07-22T12:11:55;5.97;;;2.70;;
68976;SDS011;56029;52.568;13.588;2023-07-22T12:14:23;7.18;;;3.33;;
68976;SDS011;56029;52.568;13.588;2023-07-22T12:16:52;5.67;;;2.93;;
68976;SDS011;56029;52.568;13.588;2023-07-22T12:19:24;6.32;;;3.05;;
68976;SDS011;56029;52.568;13.588;2023-07-22T12:21:49;6.23;;;2.80;;
68976;SDS011;56029;52.568;13.588;2023-07-22T12:24:15;7.13;;;3.10;;
68976;SDS011;56029;52.568;13.588;2023-07-22T12:26:41;7.50;;;3.60;;
68976;SDS011;56029;52.568;13.588;2023-07-22T12:29:07;6.85;;;2.95;;
68976;SDS011;56029;52.568;13.588;2023-07-22T12:31:33;5.68;;;3.10;;
68976;SDS011;56029;52.568;13.588;2023-07-22T12:33:59;6.57;;;2.80;;
68976;SDS011;56029;52.568;13.588;2023-07-22T12:36:24;6.95;;;3.10;;
68976;SDS011;56029;52.568;13.588;2023-07-22T12:38:50;6.80;;;2.73;;
68976;SDS011;56029;52.568;13.588;2023-07-22T12:41:16;6.10;;;3.17;;
68976;SDS011;56029;52.568;13.588;2023-07-22T12:43:42;5.22;;;2.65;;
68976;SDS011;56029;52.568;13.588;2023-07-22T12:46:07;6.87;;;2.83;;
68976;SDS011;56029;52.568;13.588;2023-07-22T12:48:33;6.17;;;3.00;;
68976;SDS011;56029;52.568;13.588;2023-07-22T12:50:59;6.73;;;2.50;;
68976;SDS011;56029;52.568;13.588;2023-07-22T12:53:24;6.03;;;3.10;;
68976;SDS011;56029;52.568;13.588;2023-07-22T12:55:50;6.45;;;3.00;;
68976;SDS011;56029;52.568;13.588;2023-07-22T12:58:16;5.73;;;3.03;;
68976;SDS011;56029;52.568;13.588;2023-07-22T13:00:41;6.33;;;3.20;;
68976;SDS011;56029;52.568;13.588;2023-07-22T13:03:07;5.27;;;2.90;;
68976;SDS011;56029;52.568;13.588;2023-07-22T13:05:33;6.95;;;3.00;;
68976;SDS011;56029;52.568;13.588;2023-07-22T13:07:58;7.40;;;3.37;;
68976;SDS011;56029;52.568;13.588;2023-07-22T13:10:26;5.93;;;2.97;;
68976;SDS011;56029;52.568;13.588;2023-07-22T13:12:54;7.82;;;3.28;;
68976;SDS011;56029;52.568;13.588;2023-07-22T13:15:19;7.40;;;3.33;;
68976;SDS011;56029;52.568;13.588;2023-07-22T13:17:45;7.40;;;3.47;;
68976;SDS011;56029;52.568;13.588;2023-07-22T13:20:11;6.60;;;3.17;;
68976;SDS011;56029;52.568;13.588;2023-07-22T13:22:37;6.30;;;3.20;;
68976;SDS011;56029;52.568;13.588;2023-07-22T13:25:03;6.70;;;3.47;;
68976;SDS011;56029;52.568;13.588;2023-07-22T13:27:29;7.15;;;3.40;;
68976;SDS011;56029;52.568;13.588;2023-07-22T13:29:55;6.50;;;3.00;;
68976;SDS011;56029;52.568;13.588;2023-07-22T13:32:20;7.37;;;3.50;;
68976;SDS011;56029;52.568;13.588;2023-07-22T13:34:46;6.63;;;3.15;;
68976;SDS011;56029;52.568;13.588;2023-07-22T13:37:11;6.93;;;2.97;;
68976;SDS011;56029;52.568;13.588;2023-07-22T13:39:37;7.33;;;3.20;;
68976;SDS011;56029;52.568;13.588;2023-07-22T13:42:03;8.02;;;3.55;;
68976;SDS011;56029;52.568;13.588;2023-07-22T13:44:28;7.03;;;3.50;;
68976;SDS011;56029;52.568;13.588;2023-07-22T13:46:54;6.90;;;3.42;;
68976;SDS011;56029;52.568;13.588;2023-07-22T13:49:19;7.33;;;3.60;;
68976;SDS011;56029;52.568;13.588;2023-07-22T13:51:46;6.53;;;3.60;;
68976;SDS011;56029;52.568;13.588;2023-07-22T13:54:11;6.73;;;3.40;;
68976;SDS011;56029;52.568;13.588;2023-07-22T13:56:37;6.72;;;3.30;;
68976;SDS011;56029;52.568;13.588;2023-07-22T13:59:02;5.87;;;3.30;;
68976;SDS011;56029;52.568;13.588;2023-07-22T14:01:30;7.68;;;3.60;;
68976;SDS011;56029;52.568;13.588;2023-07-22T14:03:56;7.20;;;3.17;;
68976;SDS011;56029;52.568;13.588;2023-07-22T14:06:22;6.22;;;3.22;;
68976;SDS011;56029;52.568;13.588;2023-07-22T14:08:48;6.70;;;3.30;;
68976;SDS011;56029;52.568;13.588;2023-07-22T14:11:13;7.27;;;3.40;;
68976;SDS011;56029;52.568;13.588;2023-07-22T14:13:39;6.70;;;3.47;;
68976;SDS011;56029;52.568;13.588;2023-07-22T14:16:04;6.30;;;3.33;;
68976;SDS011;56029;52.568;13.588;2023-07-22T14:18:30;7.32;;;3.83;;
68976;SDS011;56029;52.568;13.588;2023-07-22T14:20:55;7.00;;;3.67;;
68976;SDS011;56029;52.568;13.588;2023-07-22T14:23:21;8.33;;;3.50;;
68976;SDS011;56029;52.568;13.588;2023-07-22T14:25:47;7.25;;;3.55;;
68976;SDS011;56029;52.568;13.588;2023-07-22T14:28:12;7.80;;;3.60;;
68976;SDS011;56029;52.568;13.588;2023-07-22T14:30:38;8.05;;;3.58;;